Latest Weather Observations for Sheoaks

IDV60801

Issued at 7:32 pm EST Sunday 20 August 2017 (issued every 30 minutes, with the page automatically refreshed every 10 minutes)

About weather observations | Map of weather stations | Latest weather observations for VIC | Other Formats
Station Details ID: 087168 Name: SHEOAKS Lat: -37.91 Lon: 144.13 Height: 236.7 m
Data from the previous 72 hours. | See also: Recent months at Sheoaks
Date/Time
EST
Temp
°C
App
Temp
°C
Dew
Point
°C
Rel
Hum
%
Delta-T
°C
Wind Press
QNH
hPa
Press
MSL
hPa
Rain since
9am
mm
Dir  Spd
km/h
Gust
km/h
Spd
kts
Gust
kts
20/07:30pm 5.8 3.8 2.3 78 1.4 NNW 2 4 1 2 1019.3 1019.6 0.2
20/07:00pm 6.9 5.2 2.0 71 2.0 CALM 0 2 0 1 1019.5 1019.8 0.2
20/06:30pm 7.0 4.3 2.5 73 1.9 E 6 6 3 3 1019.5 1019.8 0.2
20/06:00pm 7.1 4.2 2.4 72 2.0 E 7 9 4 5 1019.5 1019.8 0.2
20/05:30pm 7.8 4.9 2.7 70 2.2 ESE 7 9 4 5 1019.6 1019.9 0.2
20/05:00pm 8.4 5.1 2.4 66 2.5 ESE 9 13 5 7 1019.5 1019.8 0.2
20/04:30pm 10.4 5.9 -0.1 48 4.3 ENE 13 17 7 9 1019.5 1019.8 0.2
20/04:00pm 10.8 6.8 0.5 49 4.3 E 11 15 6 8 1019.6 1019.9 0.2
20/03:30pm 11.6 7.8 1.5 50 4.3 E 11 17 6 9 1020.0 1020.4 0.2
20/03:00pm 11.5 8.4 1.5 50 4.3 SE 7 13 4 7 1020.1 1020.5 0.2
20/02:30pm 11.5 9.0 -0.9 42 5.0 SSE 2 4 1 2 1020.7 1021.0 0.2
20/02:00pm 11.5 8.1 -0.9 42 5.0 NNE 7 11 4 6 1021.4 1021.7 0.2
20/01:30pm 11.3 8.6 0.1 46 4.6 NNE 4 9 2 5 1022.2 1022.5 0.2
20/01:00pm 10.8 7.6 -0.3 46 4.5 WSW 6 11 3 6 1022.9 1023.2 0.2
20/12:30pm 10.2 7.5 0.3 50 4.1 WNW 4 6 2 3 1023.6 1024.0 0.2
20/12:00pm 9.9 6.8 0.0 50 4.0 NE 6 9 3 5 1024.1 1024.5 0.0
20/11:30am 9.3 6.5 -0.3 51 3.9 ENE 4 13 2 7 1024.9 1025.2 0.0
20/11:00am 9.5 7.3 1.2 56 3.4 NE 2 6 1 3 1025.4 1025.7 0.0
20/10:30am 8.7 6.5 1.1 59 3.1 S 2 4 1 2 1025.7 1026.0 0.0
20/10:00am 7.9 5.8 4.1 77 1.7 N 4 6 2 3 1025.9 1026.2 0.0
20/09:30am 5.6 3.2 4.1 90 0.6 N 6 7 3 4 1026.4 1026.7 0.0
20/09:00am 3.5 0.8 2.8 95 0.3 N 6 7 3 4 1026.7 1027.0 0.8
20/08:30am 1.6 -1.6 1.0 96 0.2 N 7 9 4 5 1026.9 1027.3 0.8
20/08:00am 0.1 -3.7 -0.5 96 0.2 N 9 9 5 5 1026.9 1027.3 0.8
20/07:30am -0.5 -4.3 -1.1 96 0.2 N 9 11 5 6 1026.7 1027.0 0.8
20/07:00am -0.5 -4.7 -1.1 96 0.2 N 11 13 6 7 1026.5 1026.8 0.8
20/06:30am -0.4 -4.2 -1.0 96 0.2 N 9 11 5 6 1026.5 1026.8 0.8
20/06:00am -0.5 -4.3 -1.1 96 0.2 N 9 11 5 6 1026.4 1026.7 0.8
20/05:30am -0.2 -3.6 -0.8 96 0.2 N 7 9 4 5 1026.5 1026.8 0.8
20/05:00am -0.2 -3.6 -0.8 96 0.2 N 7 9 4 5 1026.5 1026.8 0.8
20/04:30am -0.1 -3.5 -0.7 96 0.2 N 7 9 4 5 1026.4 1026.7 0.8
20/04:00am 0.3 -3.4 -0.3 96 0.2 N 9 9 5 5 1026.2 1026.5 0.8
20/03:30am 0.0 -3.8 -0.6 96 0.2 NNW 9 9 5 5 1026.3 1026.6 0.8
20/03:00am 0.7 -3.0 0.1 96 0.2 NNW 9 11 5 6 1026.4 1026.7 0.8
20/02:30am 1.1 -2.5 0.7 97 0.2 N 9 11 5 6 1026.4 1026.7 0.8
20/02:00am 1.1 -1.9 0.5 96 0.2 N 6 7 3 4 1026.6 1026.9 0.8
20/01:30am 1.4 -1.8 0.8 96 0.2 N 7 7 4 4 1026.4 1026.7 0.8
20/01:00am 1.9 -1.2 1.3 96 0.2 NNW 7 9 4 5 1026.6 1026.9 0.8
20/12:30am 2.6 -0.4 2.0 96 0.2 NNW 7 9 4 5 1026.8 1027.1 0.8
20/12:00am 2.8 0.1 2.4 97 0.2 N 6 6 3 3 1027.5 1027.9 0.8
 
Date/Time
EST
Temp
°C
App
Temp
°C
Dew
Point
°C
Rel
Hum
%
Delta-T
°C
Wind Press
QNH
hPa
Press
MSL
hPa
Rain since
9am
mm
Dir  Spd
km/h
Gust
km/h
Spd
kts
Gust
kts
19/11:30pm 2.2 -0.7 1.6 96 0.2 N 6 7 3 4 1027.8 1028.2 0.6
19/11:00pm 2.1 -1.0 1.5 96 0.2 NNW 7 9 4 5 1027.9 1028.3 0.6
19/10:30pm 2.5 -0.5 1.8 95 0.3 NNW 7 9 4 5 1027.6 1028.0 0.6
19/10:00pm 3.4 0.5 2.7 95 0.3 N 7 7 4 4 1027.3 1027.7 0.6
19/09:30pm 4.3 1.7 3.4 94 0.4 N 6 6 3 3 1027.4 1027.8 0.6
19/09:00pm 4.9 2.4 4.0 94 0.4 NNW 6 6 3 3 1027.5 1027.9 0.6
19/08:30pm 5.3 2.9 4.3 93 0.4 NNW 6 6 3 3 1027.4 1027.8 0.6
19/08:00pm 5.4 3.0 4.1 91 0.6 NNW 6 6 3 3 1027.3 1027.7 0.6
19/07:30pm 5.6 3.5 4.1 90 0.6 NNW 4 4 2 2 1027.4 1027.8 0.2
19/07:00pm 5.7 3.7 4.2 90 0.6 NNW 4 4 2 2 1027.2 1027.6 0.0
19/06:30pm 5.7 4.0 3.9 88 0.8 NE 2 6 1 3 1027.2 1027.6 0.0
19/06:00pm 6.1 4.7 3.4 83 1.1 CALM 0 0 0 0 1027.1 1027.5 0.0
19/05:30pm 7.1 5.8 4.1 81 1.3 CALM 0 0 0 0 1026.9 1027.3 0.0
19/05:00pm 7.4 5.8 4.4 81 1.3 SE 2 6 1 3 1026.8 1027.1 0.0
19/04:30pm 7.9 4.9 3.9 76 1.8 SSE 9 15 5 8 1026.7 1027.0 0.0
19/04:00pm 9.2 7.9 4.2 71 2.2 CALM 0 0 0 0 1026.5 1026.8 0.0
19/03:30pm 7.9 4.8 3.8 75 1.8 SSW 9 15 5 8 1026.5 1026.8 0.0
19/03:00pm 8.8 4.5 3.4 69 2.3 SW 15 26 8 14 1026.3 1026.6 0.0
19/02:30pm 10.3 7.0 2.7 59 3.3 SW 9 13 5 7 1026.3 1026.6 0.0
19/02:00pm 9.9 6.9 1.8 57 3.4 SW 7 15 4 8 1026.3 1026.6 0.0
19/01:30pm 8.1 3.6 2.1 66 2.5 SSW 15 22 8 12 1026.6 1026.9 0.0
19/01:00pm 10.0 5.5 2.1 58 3.4 S 15 26 8 14 1026.6 1026.9 0.0
19/12:30pm 9.0 4.6 2.6 64 2.7 SSW 15 22 8 12 1026.7 1027.0 0.0
19/12:00pm 9.6 6.1 3.4 65 2.7 SW 11 19 6 10 1026.6 1026.9 0.0
19/11:30am 8.9 5.1 4.1 72 2.1 SW 13 20 7 11 1026.6 1026.9 0.0
19/11:00am 8.2 5.6 4.2 76 1.8 SW 7 13 4 7 1026.8 1027.1 0.0
19/10:30am 7.4 3.6 3.8 78 1.6 SSW 13 20 7 11 1026.9 1027.3 0.0
19/10:00am 7.4 4.0 4.2 80 1.4 WSW 11 22 6 12 1026.5 1026.8 0.0
19/09:30am 6.5 2.3 3.7 82 1.2 W 15 22 8 12 1026.4 1026.7 0.0
19/09:00am 5.7 1.5 3.7 87 0.8 W 15 22 8 12 1026.1 1026.4 6.0
19/08:30am 4.9 1.8 3.4 90 0.6 W 9 19 5 10 1025.7 1026.0 6.0
19/08:00am 4.2 -0.2 2.9 91 0.5 W 15 19 8 10 1025.3 1025.6 6.0
19/07:30am 3.6 -0.9 2.3 91 0.5 W 15 20 8 11 1024.7 1025.1 6.0
19/07:00am 4.0 1.3 2.7 91 0.5 WSW 6 11 3 6 1024.6 1025.0 6.0
19/06:30am 4.1 0.9 2.9 92 0.5 W 9 15 5 8 1023.7 1024.1 5.8
19/06:00am 3.7 0.4 2.5 92 0.5 WNW 9 13 5 7 1023.2 1023.5 5.8
19/05:30am 4.0 0.8 2.8 92 0.5 WSW 9 13 5 7 1023.2 1023.5 5.8
19/05:00am 4.0 -0.4 2.8 92 0.5 W 15 22 8 12 1022.8 1023.1 5.8
19/04:30am 4.2 0.2 2.9 91 0.5 W 13 19 7 10 1022.4 1022.7 5.8
19/04:00am 4.2 0.9 2.7 90 0.6 W 9 15 5 8 1022.2 1022.5 5.8
19/03:30am 4.3 0.7 3.0 91 0.5 WSW 11 17 6 9 1022.0 1022.3 5.8
19/03:00am 4.3 0.0 3.1 92 0.5 W 15 20 8 11 1021.6 1021.9 5.8
19/02:30am 4.3 0.0 3.1 92 0.5 WNW 15 19 8 10 1021.4 1021.7 5.8
19/02:00am 4.4 0.4 3.1 91 0.5 W 13 20 7 11 1021.5 1021.8 5.8
19/01:30am 4.6 0.6 3.1 90 0.6 WSW 13 20 7 11 1021.6 1021.9 5.6
19/01:00am 4.7 0.0 3.0 89 0.7 W 17 24 9 13 1021.2 1021.5 5.6
19/12:30am 4.9 1.0 3.2 89 0.7 W 13 20 7 11 1021.1 1021.4 5.6
19/12:00am 4.8 0.1 3.1 89 0.7 W 17 26 9 14 1020.8 1021.1 5.6
 
Date/Time
EST
Temp
°C
App
Temp
°C
Dew
Point
°C
Rel
Hum
%
Delta-T
°C
Wind Press
QNH
hPa
Press
MSL
hPa
Rain since
9am
mm
Dir  Spd
km/h
Gust
km/h
Spd
kts
Gust
kts
18/11:30pm 4.9 1.0 3.2 89 0.7 W 13 20 7 11 1020.8 1021.1 5.6
18/11:00pm 5.3 1.1 3.6 89 0.7 W 15 24 8 13 1020.7 1021.0 5.6
18/10:30pm 5.4 0.4 3.6 88 0.8 W 19 26 10 14 1020.2 1020.6 5.6
18/10:00pm 5.5 1.2 3.3 86 0.9 W 15 24 8 13 1020.0 1020.4 5.6
18/09:30pm 5.6 1.7 3.3 85 1.0 WSW 13 20 7 11 1019.7 1020.0 5.6
18/09:00pm 6.0 1.4 3.8 86 0.9 W 17 22 9 12 1019.4 1019.7 5.6
18/08:30pm 5.9 1.7 3.9 87 0.9 W 15 22 8 12 1019.1 1019.4 5.6
18/08:00pm 5.5 1.6 3.3 86 0.9 W 13 20 7 11 1018.6 1018.9 5.6
18/07:30pm 6.0 1.4 3.5 84 1.1 W 17 26 9 14 1018.2 1018.5 5.6
18/07:00pm 6.0 1.8 3.8 86 0.9 W 15 24 8 13 1017.7 1018.0 5.6
18/06:30pm 6.0 2.2 3.8 86 0.9 W 13 20 7 11 1017.1 1017.4 5.6
18/06:00pm 6.6 2.1 4.3 85 1.0 W 17 24 9 13 1016.4 1016.7 4.8
18/05:30pm 6.9 2.0 4.2 83 1.2 W 19 32 10 17 1015.7 1016.0 4.8
18/05:00pm 7.1 2.2 4.2 82 1.3 WSW 19 33 10 18 1015.2 1015.5 4.8
18/04:30pm 7.0 1.4 3.3 77 1.6 W 22 30 12 16 1014.6 1014.9 4.8
18/04:00pm 5.9 0.9 3.6 85 1.0 WSW 19 39 10 21 1014.5 1014.8 4.8
18/03:30pm 6.9 3.2 4.4 84 1.1 SW 13 20 7 11 1014.0 1014.3 2.8
18/03:00pm 7.8 4.0 5.6 86 1.0 W 15 24 8 13 1013.5 1013.8 2.2
18/02:30pm 7.2 1.8 4.7 84 1.1 W 22 37 12 20 1013.2 1013.5 2.0
18/02:00pm 7.2 2.3 4.3 82 1.3 W 19 32 10 17 1012.4 1012.6 2.0
18/01:30pm 7.1 1.5 5.3 88 0.8 W 24 43 13 23 1012.2 1012.4 2.0
18/01:00pm 6.5 0.8 5.0 90 0.7 W 24 37 13 20 1012.0 1012.2 1.6
18/12:30pm 6.5 1.1 4.5 87 0.9 W 22 35 12 19 1011.8 1012.0 1.2
18/12:00pm 8.8 2.4 5.2 78 1.6 W 28 46 15 25 1011.1 1011.4 0.2
18/11:59am 8.7 2.2 4.9 77 1.7 W 28 46 15 25 1010.9 1011.2 0.2
18/11:30am 8.5 2.5 5.4 81 1.4 W 26 37 14 20 1010.7 1011.0 0.2
18/11:13am 8.2 1.8 5.1 81 1.4 W 28 48 15 26 1010.7 1011.0 0.2
18/11:00am 7.8 1.7 4.9 82 1.3 WNW 26 41 14 22 1010.6 1010.9 0.2
18/10:30am 6.1 0.6 3.9 86 0.9 WNW 22 37 12 20 1010.4 1010.7 0.2
18/10:00am 6.4 -1.1 3.2 80 1.4 WNW 32 46 17 25 1009.8 1010.1 0.0
18/09:49am 6.6 -0.1 3.4 80 1.4 WNW 28 46 15 25 1009.5 1009.8 0.0
18/09:30am 6.3 0.3 3.5 82 1.2 WNW 24 39 13 21 1009.3 1009.6 0.0
18/09:00am 6.0 -0.8 3.3 83 1.1 WNW 28 46 15 25 1009.1 1009.3 5.0
18/08:58am 6.0 -0.8 3.3 83 1.1 WNW 28 46 15 25 1009.0 1009.2 5.0
18/08:30am 4.9 -0.8 3.1 88 0.8 WNW 22 35 12 19 1009.0 1009.2 5.0
18/08:00am 4.9 -1.2 2.8 86 0.9 WNW 24 33 13 18 1008.8 1009.0 4.2
18/07:30am 5.6 -1.2 2.9 83 1.1 WNW 28 54 15 29 1007.6 1007.8 3.6
18/07:27am 5.8 -1.0 3.3 84 1.1 WNW 28 54 15 29 1007.4 1007.6 3.6
18/07:00am 5.7 -1.4 3.5 86 0.9 W 30 44 16 24 1007.3 1007.5 3.6
18/06:30am 6.2 -0.6 3.2 81 1.3 WNW 28 43 15 23 1006.3 1006.6 3.4
18/06:00am 6.0 -1.5 3.5 84 1.1 WNW 32 52 17 28 1005.8 1006.1 3.2
18/05:55am 6.2 -0.5 3.4 82 1.2 WNW 28 52 15 28 1005.6 1005.9 3.2
18/05:30am 5.9 -1.0 2.7 80 1.3 WNW 28 43 15 23 1005.4 1005.6 3.2
18/05:01am 6.0 -1.6 2.8 80 1.3 WNW 32 52 17 28 1005.0 1005.2 3.2
18/05:00am 6.0 -1.8 2.8 80 1.3 WNW 33 52 18 28 1004.9 1005.1 3.2
18/04:30am 6.4 -0.9 2.5 76 1.6 WNW 30 50 16 27 1004.3 1004.5 3.2
18/04:20am 6.4 -1.2 2.7 77 1.6 WNW 32 54 17 29 1003.9 1004.1 3.2
18/04:00am 6.0 -1.2 3.0 81 1.3 WNW 30 44 16 24 1004.2 1004.4 3.2
18/03:30am 6.4 -0.6 1.9 73 1.8 WNW 28 44 15 24 1003.7 1003.9 2.8
18/03:00am 6.7 -0.2 2.4 74 1.8 WNW 28 44 15 24 1003.7 1003.9 2.8
18/02:30am 6.7 0.2 2.4 74 1.8 WNW 26 43 14 23 1003.4 1003.6 2.8
18/02:20am 6.7 -0.2 2.6 75 1.7 WNW 28 46 15 25 1003.4 1003.6 2.8
18/02:00am 6.5 0.3 2.4 75 1.7 NW 24 37 13 20 1003.7 1003.9 2.8
18/01:30am 6.7 0.6 2.8 76 1.6 NW 24 37 13 20 1003.7 1003.9 2.8
18/01:00am 6.3 0.6 2.6 77 1.6 NW 22 35 12 19 1003.6 1003.8 2.8
18/12:30am 6.4 1.0 2.7 77 1.6 NW 20 33 11 18 1003.5 1003.7 2.8
18/12:00am 6.3 1.0 3.1 80 1.4 NW 20 35 11 19 1003.7 1003.9 2.8
 
Date/Time
EST
Temp
°C
App
Temp
°C
Dew
Point
°C
Rel
Hum
%
Delta-T
°C
Wind Press
QNH
hPa
Press
MSL
hPa
Rain since
9am
mm
Dir  Spd
km/h
Gust
km/h
Spd
kts
Gust
kts
17/11:30pm 5.8 0.5 3.0 82 1.2 NW 20 32 11 17 1003.5 1003.7 2.8
17/11:00pm 5.8 0.7 3.1 83 1.1 NW 19 28 10 15 1003.5 1003.7 2.8
17/10:30pm 5.8 0.7 2.8 81 1.3 NW 19 32 10 17 1003.3 1003.5 2.8
17/10:00pm 6.4 1.2 3.4 81 1.3 NW 20 32 11 17 1003.2 1003.4 2.8
17/09:30pm 6.6 0.5 2.9 77 1.6 WNW 24 46 13 25 1003.3 1003.5 2.8
17/09:01pm 7.5 0.7 3.2 74 1.8 WNW 28 48 15 26 1003.5 1003.7 2.8
17/09:00pm 7.6 0.8 3.1 73 1.9 WNW 28 46 15 25 1003.5 1003.7 2.8
17/08:30pm 6.8 2.2 3.6 80 1.4 NW 17 32 9 17 1003.2 1003.4 2.8
17/08:00pm 6.9 2.0 4.2 83 1.2 NW 19 30 10 16 1002.6 1002.9 2.8

Other Formats:

Comma delimited format used in spreadsheet applications
http://www.bom.gov.au/fwo/IDV60801/IDV60801.94863.axf

JavaScript Object Notation format (JSON) in row-major order
http://www.bom.gov.au/fwo/IDV60801/IDV60801.94863.json